createdAt,value
2023-07-31T00:02:20.086Z,80.99
2023-07-31T00:07:29.750Z,81.04
2023-07-31T00:12:40.624Z,81.28
2023-07-31T00:17:50.283Z,81.21
2023-07-31T00:22:59.896Z,81.34
2023-07-31T00:28:10.207Z,81.43
2023-07-31T00:33:19.712Z,81.51
2023-07-31T00:38:29.252Z,81.61
2023-07-31T00:43:38.768Z,81.61
2023-07-31T00:48:49.155Z,81.68
2023-07-31T00:54:00.172Z,81.83
2023-07-31T00:59:10.043Z,81.89
2023-07-31T01:04:20.461Z,81.92
2023-07-31T01:09:43.036Z,82.07
2023-07-31T01:15:12.506Z,82.06
2023-07-31T01:20:26.325Z,82.25
2023-07-31T01:26:07.884Z,82.45
2023-07-31T01:31:22.869Z,82.49
2023-07-31T01:36:33.578Z,82.42
2023-07-31T01:41:43.079Z,82.36
2023-07-31T01:46:52.761Z,82.50
2023-07-31T01:52:02.356Z,82.61
2023-07-31T01:57:12.680Z,82.76
2023-07-31T02:02:22.315Z,82.80
2023-07-31T02:07:31.937Z,82.75
2023-07-31T02:12:41.459Z,82.68
2023-07-31T02:17:51.103Z,82.57
2023-07-31T02:23:00.908Z,82.64
2023-07-31T02:28:10.685Z,82.61
2023-07-31T02:33:21.317Z,82.54
2023-07-31T02:38:31.312Z,82.21
2023-07-31T02:43:41.101Z,81.97
2023-07-31T02:48:50.651Z,81.86
2023-07-31T02:54:00.271Z,81.76
2023-07-31T02:59:09.885Z,81.74
2023-07-31T03:04:19.822Z,81.83
2023-07-31T03:09:29.566Z,81.81
2023-07-31T03:14:39.112Z,81.81
2023-07-31T03:19:48.757Z,81.82
2023-07-31T03:24:58.873Z,81.75
2023-07-31T03:30:10.166Z,81.60
2023-07-31T03:35:20.558Z,81.61
2023-07-31T03:40:30.523Z,81.63
2023-07-31T03:45:40.151Z,81.56
2023-07-31T03:50:49.771Z,81.46
2023-07-31T03:55:59.352Z,81.41
2023-07-31T04:01:09.444Z,81.36
2023-07-31T04:06:19.527Z,81.36
2023-07-31T04:11:29.125Z,81.50
2023-07-31T04:16:39.088Z,81.50
2023-07-31T04:21:48.913Z,81.39
2023-07-31T04:26:58.673Z,81.28
2023-07-31T04:32:09.422Z,81.09
2023-07-31T04:37:19.312Z,80.93
2023-07-31T04:42:28.865Z,80.74
2023-07-31T04:47:38.451Z,80.73
2023-07-31T04:52:47.966Z,80.56
2023-07-31T04:57:57.666Z,80.36
2023-07-31T05:03:08.366Z,80.37
2023-07-31T05:08:18.945Z,80.23
2023-07-31T05:13:29.091Z,80.25
2023-07-31T05:18:38.735Z,79.91
2023-07-31T05:23:49.195Z,79.69
2023-07-31T05:28:59.710Z,79.71
2023-07-31T05:34:09.391Z,79.43
2023-07-31T05:39:20.922Z,79.15
2023-07-31T05:44:30.691Z,78.71
2023-07-31T05:49:40.536Z,78.69
2023-07-31T05:54:50.406Z,78.42
2023-07-31T06:00:00.069Z,78.04
2023-07-31T06:05:11.559Z,77.55
2023-07-31T06:10:22.728Z,77.32
2023-07-31T06:15:33.164Z,76.75
2023-07-31T06:20:43.608Z,76.58
2023-07-31T06:25:53.585Z,75.92
2023-07-31T06:31:03.902Z,75.75
2023-07-31T06:36:13.862Z,75.36
2023-07-31T06:41:23.412Z,74.43
2023-07-31T06:46:33.366Z,73.11
2023-07-31T06:51:42.924Z,72.29
2023-07-31T06:56:54.167Z,72.21
2023-07-31T07:02:06.630Z,72.22
2023-07-31T07:07:19.149Z,71.54
2023-07-31T07:12:29.969Z,70.18
2023-07-31T07:17:40.066Z,69.06
2023-07-31T07:22:49.918Z,68.67
2023-07-31T07:27:59.782Z,66.81
2023-07-31T07:33:09.667Z,66.64
2023-07-31T07:38:20.642Z,66.21
2023-07-31T07:43:30.286Z,64.76
2023-07-31T07:48:39.911Z,65.46
2023-07-31T07:53:50.162Z,63.87
2023-07-31T07:59:00.216Z,64.05
2023-07-31T08:04:10.123Z,63.42
2023-07-31T08:09:20.022Z,61.26
2023-07-31T08:14:32.044Z,59.97
2023-07-31T08:19:43.487Z,57.49
2023-07-31T08:24:53.330Z,56.06
2023-07-31T08:30:03.053Z,56.74
2023-07-31T08:35:13.148Z,56.13
2023-07-31T08:40:23.891Z,55.71
2023-07-31T08:45:34.886Z,54.63
2023-07-31T08:50:44.816Z,54.31
2023-07-31T08:55:57.367Z,53.67
2023-07-31T09:01:09.816Z,53.53
2023-07-31T09:06:21.294Z,53.02
2023-07-31T09:11:31.692Z,51.85
2023-07-31T09:16:56.369Z,51.40
2023-07-31T09:22:06.315Z,50.83
2023-07-31T09:27:16.017Z,50.24
2023-07-31T09:32:29.436Z,50.26
2023-07-31T09:37:39.558Z,49.71
2023-07-31T09:42:51.555Z,48.04
2023-07-31T09:48:01.552Z,47.58
2023-07-31T09:53:12.560Z,46.92
2023-07-31T09:58:26.208Z,47.40
2023-07-31T10:03:38.075Z,45.93
2023-07-31T10:08:54.430Z,45.88
2023-07-31T10:14:04.382Z,46.37
2023-07-31T10:19:16.902Z,44.94
2023-07-31T10:24:28.409Z,44.58
2023-07-31T10:29:39.653Z,44.33
2023-07-31T10:34:50.485Z,43.86
2023-07-31T10:40:09.128Z,43.21
2023-07-31T10:45:28.826Z,44.06
2023-07-31T10:50:49.964Z,44.11
2023-07-31T10:56:04.703Z,43.79
2023-07-31T11:01:14.391Z,42.69
2023-07-31T11:06:24.107Z,43.17
2023-07-31T11:11:35.820Z,43.49
2023-07-31T11:16:47.798Z,42.57
2023-07-31T11:21:58.992Z,43.13
2023-07-31T11:27:13.940Z,43.29
2023-07-31T11:32:25.958Z,43.63
2023-07-31T11:37:47.264Z,43.73
2023-07-31T11:42:57.305Z,43.76
2023-07-31T11:48:07.800Z,43.66
2023-07-31T11:53:19.664Z,43.83
2023-07-31T11:58:31.626Z,44.45
2023-07-31T12:03:44.080Z,44.49
2023-07-31T12:08:54.258Z,44.90
2023-07-31T12:14:07.200Z,44.63
2023-07-31T12:19:16.793Z,43.94
2023-07-31T12:24:28.478Z,44.35
2023-07-31T12:29:43.142Z,45.03
2023-07-31T12:34:53.221Z,45.13
2023-07-31T12:40:09.118Z,45.63
2023-07-31T12:45:19.107Z,45.94
2023-07-31T12:50:29.005Z,46.50
2023-07-31T12:55:39.097Z,46.80
2023-07-31T13:00:48.976Z,47.19
2023-07-31T13:05:58.947Z,51.38
2023-07-31T13:11:08.529Z,60.34
2023-07-31T13:16:18.045Z,64.36
2023-07-31T13:21:29.092Z,67.46
2023-07-31T13:26:39.159Z,67.96
2023-07-31T13:31:49.020Z,68.87
2023-07-31T13:37:00.434Z,69.21
2023-07-31T13:42:13.659Z,67.65
2023-07-31T13:47:23.402Z,67.68
2023-07-31T13:52:33.156Z,67.50
2023-07-31T13:57:43.600Z,67.40
2023-07-31T14:02:53.341Z,67.20
2023-07-31T14:08:03.550Z,66.95
2023-07-31T14:13:13.198Z,67.18
2023-07-31T14:18:24.039Z,66.94
2023-07-31T14:23:34.212Z,66.63
2023-07-31T14:28:43.893Z,66.38
2023-07-31T14:33:54.435Z,65.82
2023-07-31T14:39:05.844Z,65.22
2023-07-31T14:44:15.884Z,64.75
2023-07-31T14:49:25.572Z,64.44
2023-07-31T14:54:35.192Z,63.06
2023-07-31T14:59:44.974Z,63.19
2023-07-31T15:04:54.649Z,62.81
2023-07-31T15:10:05.156Z,62.46
2023-07-31T15:15:15.335Z,62.62
2023-07-31T15:20:25.192Z,62.60
2023-07-31T15:25:34.816Z,62.71
2023-07-31T15:30:45.393Z,62.61
2023-07-31T15:35:56.947Z,62.43
2023-07-31T15:41:07.136Z,62.47
2023-07-31T15:46:18.031Z,62.33
2023-07-31T15:51:28.621Z,62.34
2023-07-31T15:56:38.773Z,62.54
2023-07-31T16:01:49.060Z,62.83
2023-07-31T16:06:59.303Z,63.08
2023-07-31T16:12:11.497Z,63.63
2023-07-31T16:17:21.457Z,63.77
2023-07-31T16:22:31.129Z,64.01
2023-07-31T16:27:40.910Z,64.04
2023-07-31T16:32:51.335Z,63.49
2023-07-31T16:38:01.133Z,62.93
2023-07-31T16:43:10.904Z,61.71
2023-07-31T16:48:20.578Z,61.67
2023-07-31T16:53:30.071Z,61.63
2023-07-31T16:58:39.750Z,61.88
2023-07-31T17:03:49.359Z,62.26
2023-07-31T17:08:59.212Z,62.62
2023-07-31T17:14:09.077Z,62.90
2023-07-31T17:19:18.879Z,63.12
2023-07-31T17:24:28.645Z,63.00
2023-07-31T17:29:38.588Z,61.12
2023-07-31T17:34:48.752Z,58.46
2023-07-31T17:39:58.534Z,57.54
2023-07-31T17:45:11.064Z,57.55
2023-07-31T17:50:21.551Z,57.88
2023-07-31T17:55:31.934Z,57.31
2023-07-31T18:00:41.987Z,57.12
2023-07-31T18:05:52.054Z,57.63
2023-07-31T18:11:01.566Z,58.53
2023-07-31T18:16:11.619Z,59.81
2023-07-31T18:21:21.630Z,61.03
2023-07-31T18:26:31.505Z,62.07
2023-07-31T18:31:41.389Z,62.78
2023-07-31T18:36:51.710Z,63.78
2023-07-31T18:42:01.294Z,64.51
2023-07-31T18:47:12.081Z,65.50
2023-07-31T18:52:22.045Z,66.16
2023-07-31T18:57:31.706Z,66.63
2023-07-31T19:02:42.109Z,67.09
2023-07-31T19:07:51.873Z,67.76
2023-07-31T19:13:01.606Z,68.18
2023-07-31T19:18:11.318Z,68.50
2023-07-31T19:23:20.944Z,68.43
2023-07-31T19:28:31.403Z,68.61
2023-07-31T19:33:41.187Z,68.72
2023-07-31T19:38:50.834Z,69.29
2023-07-31T19:44:00.780Z,69.22
2023-07-31T19:49:10.628Z,69.65
2023-07-31T19:54:21.250Z,69.48
2023-07-31T19:59:30.816Z,69.56
2023-07-31T20:04:40.823Z,69.72
2023-07-31T20:09:52.299Z,69.79
2023-07-31T20:15:09.220Z,69.85
2023-07-31T20:20:19.320Z,70.02
2023-07-31T20:25:29.451Z,70.03
2023-07-31T20:30:39.226Z,70.29
2023-07-31T20:35:48.852Z,70.29
2023-07-31T20:40:58.398Z,70.36
2023-07-31T20:46:07.993Z,70.65
2023-07-31T20:51:17.933Z,70.90
2023-07-31T20:56:27.736Z,71.30
2023-07-31T21:01:37.643Z,71.24
2023-07-31T21:06:47.826Z,71.41
2023-07-31T21:11:57.575Z,71.57
2023-07-31T21:17:08.720Z,71.32
2023-07-31T21:22:18.374Z,71.30
2023-07-31T21:27:28.219Z,71.39
2023-07-31T21:32:37.809Z,71.32
2023-07-31T21:37:49.404Z,71.35
2023-07-31T21:42:58.988Z,71.34
2023-07-31T21:48:09.594Z,71.38
2023-07-31T21:53:19.249Z,71.44
2023-07-31T21:58:29.157Z,71.24
2023-07-31T22:03:39.710Z,71.18
2023-07-31T22:08:49.701Z,71.13
2023-07-31T22:13:59.534Z,71.01
2023-07-31T22:19:09.192Z,70.92
2023-07-31T22:24:18.770Z,70.75
2023-07-31T22:29:28.657Z,70.62
2023-07-31T22:34:38.518Z,70.54
2023-07-31T22:39:48.130Z,70.47
2023-07-31T22:44:57.765Z,70.43
2023-07-31T22:50:09.164Z,70.44
2023-07-31T22:55:19.204Z,70.38
2023-07-31T23:00:29.349Z,70.37
2023-07-31T23:05:39.348Z,70.36
2023-07-31T23:10:53.188Z,70.29
2023-07-31T23:16:02.836Z,70.24
2023-07-31T23:21:13.608Z,70.19
2023-07-31T23:26:23.458Z,70.18
2023-07-31T23:31:35.458Z,70.12
2023-07-31T23:36:47.403Z,70.10
2023-07-31T23:41:57.546Z,70.03
2023-07-31T23:47:09.806Z,70.00
2023-07-31T23:52:20.054Z,69.97
2023-07-31T23:57:31.866Z,69.91
